createdAt,value
2019-04-03T00:01:34.413Z,9.97
2019-04-03T00:04:04.671Z,9.92
2019-04-03T00:06:35.039Z,9.84
2019-04-03T00:09:06.584Z,9.78
2019-04-03T00:11:35.806Z,9.70
2019-04-03T00:14:04.067Z,9.70
2019-04-03T00:16:32.368Z,9.67
2019-04-03T00:19:00.525Z,9.66
2019-04-03T00:21:28.834Z,9.69
2019-04-03T00:23:57.156Z,9.77
2019-04-03T00:26:25.298Z,9.70
2019-04-03T00:28:53.442Z,9.68
2019-04-03T00:31:23.288Z,9.72
2019-04-03T00:33:53.422Z,9.60
2019-04-03T00:36:23.317Z,9.53
2019-04-03T00:38:52.584Z,9.58
2019-04-03T00:41:24.132Z,9.40
2019-04-03T00:43:54.049Z,9.58
2019-04-03T00:46:22.806Z,9.42
2019-04-03T00:48:55.342Z,9.50
2019-04-03T00:51:22.688Z,9.29
2019-04-03T00:53:51.046Z,9.23
2019-04-03T00:56:19.338Z,9.25
2019-04-03T00:58:47.718Z,9.46
2019-04-03T01:01:15.976Z,9.28
2019-04-03T01:03:44.161Z,9.14
2019-04-03T01:06:13.953Z,9.25
2019-04-03T01:08:42.136Z,9.14
2019-04-03T01:11:10.275Z,9.17
2019-04-03T01:13:38.468Z,9.20
2019-04-03T01:16:06.619Z,9.17
2019-04-03T01:18:35.429Z,9.26
2019-04-03T01:21:06.260Z,9.23
2019-04-03T01:23:37.201Z,9.30
2019-04-03T01:26:04.304Z,9.35
2019-04-03T01:28:32.462Z,9.45
2019-04-03T01:31:00.616Z,9.39
2019-04-03T01:33:28.845Z,9.31
2019-04-03T01:35:56.993Z,9.29
2019-04-03T01:38:25.166Z,9.22
2019-04-03T01:40:53.317Z,9.29
2019-04-03T01:43:23.132Z,9.34
2019-04-03T01:45:51.664Z,9.24
2019-04-03T01:48:19.815Z,9.22
2019-04-03T01:50:47.988Z,9.22
2019-04-03T01:53:16.141Z,9.29
2019-04-03T01:55:44.571Z,9.40
2019-04-03T01:58:12.799Z,9.33
2019-04-03T02:00:41.641Z,9.53
2019-04-03T02:03:10.301Z,9.54
2019-04-03T02:05:39.402Z,9.47
2019-04-03T02:08:07.619Z,9.40
2019-04-03T02:10:36.064Z,9.28
2019-04-03T02:13:04.232Z,9.10
2019-04-03T02:15:32.406Z,9.07
2019-04-03T02:18:00.546Z,9.03
2019-04-03T02:20:28.735Z,8.99
2019-04-03T02:22:59.646Z,9.00
2019-04-03T02:25:27.771Z,8.96
2019-04-03T02:27:55.962Z,8.99
2019-04-03T02:30:24.111Z,9.14
2019-04-03T02:32:55.211Z,8.94
2019-04-03T02:35:22.510Z,9.03
2019-04-03T02:37:50.962Z,8.86
2019-04-03T02:40:19.342Z,8.81
2019-04-03T02:42:47.528Z,8.84
2019-04-03T02:45:15.675Z,8.89
2019-04-03T02:47:43.911Z,8.74
2019-04-03T02:50:15.647Z,8.92
2019-04-03T02:52:43.991Z,8.86
2019-04-03T02:55:12.415Z,8.87
2019-04-03T02:57:40.674Z,8.72
2019-04-03T03:00:10.103Z,8.69
2019-04-03T03:02:38.248Z,8.67
2019-04-03T03:05:06.433Z,8.57
2019-04-03T03:07:36.416Z,8.47
2019-04-03T03:10:05.989Z,8.42
2019-04-03T03:12:36.362Z,8.46
2019-04-03T03:15:06.074Z,8.39
2019-04-03T03:17:36.300Z,8.36
2019-04-03T03:20:07.684Z,8.34
2019-04-03T03:22:39.052Z,8.28
2019-04-03T03:25:08.671Z,8.30
2019-04-03T03:27:40.747Z,8.26
2019-04-03T03:30:30.353Z,8.35
2019-04-03T03:32:38.743Z,8.37
2019-04-03T03:35:14.485Z,8.34
2019-04-03T03:37:38.658Z,8.35
2019-04-03T03:40:08.091Z,8.25
2019-04-03T03:42:36.411Z,8.05
2019-04-03T03:45:05.786Z,8.16
2019-04-03T03:47:37.042Z,8.26
2019-04-03T03:50:07.206Z,8.03
2019-04-03T03:52:38.329Z,7.95
2019-04-03T03:55:08.478Z,7.86
2019-04-03T03:57:40.162Z,7.90
2019-04-03T04:00:09.324Z,7.93
2019-04-03T04:02:40.917Z,7.88
2019-04-03T04:05:10.695Z,7.75
2019-04-03T04:07:38.782Z,7.71
2019-04-03T04:10:07.396Z,7.67
2019-04-03T04:12:39.754Z,7.66
2019-04-03T04:15:08.780Z,7.83
2019-04-03T04:17:37.214Z,7.63
2019-04-03T04:20:06.320Z,7.74
2019-04-03T04:22:34.957Z,7.78
2019-04-03T04:25:05.289Z,7.89
2019-04-03T04:27:37.358Z,7.75
2019-04-03T04:30:05.200Z,7.80
2019-04-03T04:32:33.411Z,7.86
2019-04-03T04:35:01.554Z,7.87
2019-04-03T04:37:30.096Z,7.89
2019-04-03T04:39:59.732Z,7.83
2019-04-03T04:42:28.493Z,7.88
2019-04-03T04:44:56.816Z,7.95
2019-04-03T04:47:25.694Z,7.81
2019-04-03T04:49:54.342Z,7.75
2019-04-03T04:52:22.688Z,7.82
2019-04-03T04:54:51.274Z,7.90
2019-04-03T04:57:19.586Z,7.88
2019-04-03T04:59:47.795Z,7.88
2019-04-03T05:02:15.961Z,7.83
2019-04-03T05:04:44.443Z,7.90
2019-04-03T05:07:13.030Z,7.92
2019-04-03T05:09:42.272Z,7.87
2019-04-03T05:12:10.976Z,7.93
2019-04-03T05:14:41.176Z,8.16
2019-04-03T05:17:09.799Z,8.13
2019-04-03T05:19:38.031Z,8.20
2019-04-03T05:22:06.488Z,8.18
2019-04-03T05:24:34.625Z,8.20
2019-04-03T05:27:03.633Z,8.23
2019-04-03T05:29:34.207Z,8.12
2019-04-03T05:32:02.332Z,8.03
2019-04-03T05:34:30.533Z,7.99
2019-04-03T05:36:58.684Z,8.22
2019-04-03T05:39:26.866Z,8.09
2019-04-03T05:41:55.235Z,7.94
2019-04-03T05:44:24.104Z,8.10
2019-04-03T05:46:52.621Z,7.97
2019-04-03T05:49:20.765Z,8.03
2019-04-03T05:51:49.196Z,7.93
2019-04-03T05:54:17.525Z,7.88
2019-04-03T05:56:45.793Z,7.81
2019-04-03T05:59:14.055Z,7.95
2019-04-03T06:01:46.102Z,7.96
2019-04-03T06:04:12.731Z,8.13
2019-04-03T06:06:40.975Z,8.25
2019-04-03T06:09:09.327Z,8.37
2019-04-03T06:11:39.866Z,8.57
2019-04-03T06:14:08.768Z,8.66
2019-04-03T06:16:37.576Z,8.54
2019-04-03T06:19:07.189Z,8.67
2019-04-03T06:21:35.600Z,9.02
2019-04-03T06:24:04.043Z,8.89
2019-04-03T06:26:32.301Z,8.66
2019-04-03T06:29:00.728Z,8.87
2019-04-03T06:31:29.077Z,8.72
2019-04-03T06:33:57.291Z,8.68
2019-04-03T06:36:26.567Z,9.40
2019-04-03T06:38:56.063Z,9.33
2019-04-03T06:41:24.987Z,9.19
2019-04-03T06:43:54.494Z,9.35
2019-04-03T06:46:23.145Z,9.63
2019-04-03T06:48:51.532Z,9.78
2019-04-03T06:51:19.902Z,9.83
2019-04-03T06:53:48.466Z,9.80
2019-04-03T06:56:16.724Z,10.01
2019-04-03T06:58:45.184Z,9.84
2019-04-03T07:01:14.182Z,9.94
2019-04-03T07:03:42.445Z,9.88
2019-04-03T07:06:11.513Z,9.85
2019-04-03T07:08:41.173Z,10.13
2019-04-03T07:11:22.370Z,10.23
2019-04-03T07:13:40.508Z,10.38
2019-04-03T07:16:09.293Z,10.50
2019-04-03T07:18:37.640Z,10.47
2019-04-03T07:21:05.798Z,10.70
2019-04-03T07:23:34.366Z,10.92
2019-04-03T07:26:02.934Z,10.88
2019-04-03T07:28:32.701Z,10.86
2019-04-03T07:31:01.001Z,10.99
2019-04-03T07:33:29.468Z,11.19
2019-04-03T07:35:57.925Z,11.03
2019-04-03T07:38:26.232Z,10.99
2019-04-03T07:40:54.415Z,11.36
2019-04-03T07:43:22.661Z,11.48
2019-04-03T07:45:50.958Z,11.53
2019-04-03T07:48:19.120Z,11.57
2019-04-03T07:50:47.447Z,11.53
2019-04-03T07:53:15.653Z,11.75
2019-04-03T07:55:44.410Z,11.69
2019-04-03T07:58:13.059Z,11.80
2019-04-03T08:00:41.411Z,11.94
2019-04-03T08:03:09.695Z,11.94
2019-04-03T08:05:37.850Z,11.99
2019-04-03T08:08:06.005Z,11.84
2019-04-03T08:10:37.133Z,12.02
2019-04-03T08:13:06.487Z,12.08
2019-04-03T08:15:35.287Z,11.85
2019-04-03T08:18:03.437Z,12.15
2019-04-03T08:20:31.608Z,12.23
2019-04-03T08:22:59.840Z,12.35
2019-04-03T08:25:28.048Z,12.69
2019-04-03T08:27:56.667Z,12.54
2019-04-03T08:30:24.887Z,11.65
2019-04-03T08:32:53.136Z,12.32
2019-04-03T08:35:23.386Z,12.54
2019-04-03T08:37:51.370Z,12.32
2019-04-03T08:40:20.427Z,12.35
2019-04-03T08:42:49.937Z,12.50
2019-04-03T08:45:20.956Z,12.24
2019-04-03T08:47:48.234Z,12.40
2019-04-03T08:50:18.132Z,12.33
2019-04-03T08:52:46.445Z,12.30
2019-04-03T08:55:15.107Z,12.57
2019-04-03T08:57:45.960Z,12.91
2019-04-03T09:00:14.531Z,12.44
2019-04-03T09:02:43.828Z,12.80
2019-04-03T09:05:14.490Z,12.81
2019-04-03T09:07:43.024Z,13.06
2019-04-03T09:10:12.211Z,13.11
2019-04-03T09:12:40.500Z,13.23
2019-04-03T09:15:10.529Z,12.90
2019-04-03T09:17:39.105Z,12.98
2019-04-03T09:20:08.824Z,12.99
2019-04-03T09:22:37.141Z,13.25
2019-04-03T09:25:05.977Z,13.25
2019-04-03T09:27:34.131Z,12.97
2019-04-03T09:30:02.943Z,12.89
2019-04-03T09:32:31.213Z,12.48
2019-04-03T09:35:01.424Z,13.20
2019-04-03T09:37:29.736Z,13.60
2019-04-03T09:40:01.011Z,13.55
2019-04-03T09:42:32.966Z,13.75
2019-04-03T09:45:02.173Z,13.27
2019-04-03T09:47:33.074Z,12.71
2019-04-03T09:50:00.711Z,12.90
2019-04-03T09:52:39.530Z,13.02
2019-04-03T09:55:00.307Z,13.05
2019-04-03T09:57:31.348Z,13.09
2019-04-03T09:59:59.301Z,12.72
2019-04-03T10:02:27.676Z,12.73
2019-04-03T10:04:58.621Z,12.80
2019-04-03T10:07:26.573Z,12.63
2019-04-03T10:09:54.936Z,12.51
2019-04-03T10:12:23.447Z,12.14
2019-04-03T10:14:52.071Z,12.07
2019-04-03T10:17:20.971Z,12.19
2019-04-03T10:19:49.297Z,12.03
2019-04-03T10:22:17.651Z,11.83
2019-04-03T10:24:45.953Z,12.16
2019-04-03T10:27:14.118Z,11.95
2019-04-03T10:29:42.453Z,11.82
2019-04-03T10:32:10.768Z,12.31
2019-04-03T10:34:38.960Z,12.34
2019-04-03T10:37:07.211Z,12.27
2019-04-03T10:39:35.585Z,12.57
2019-04-03T10:42:03.891Z,12.54
2019-04-03T10:44:32.207Z,12.67
2019-04-03T10:47:00.436Z,13.07
2019-04-03T10:49:30.028Z,13.12
2019-04-03T10:51:58.669Z,13.28
2019-04-03T10:54:27.287Z,13.26
2019-04-03T10:56:55.903Z,13.42
2019-04-03T10:59:24.207Z,13.47
2019-04-03T11:01:52.385Z,13.17
2019-04-03T11:04:20.691Z,13.21
2019-04-03T11:06:48.869Z,13.20
2019-04-03T11:09:17.177Z,13.75
2019-04-03T11:11:45.553Z,13.33
2019-04-03T11:14:14.208Z,13.55
2019-04-03T11:16:45.993Z,13.09
2019-04-03T11:19:12.896Z,13.55
2019-04-03T11:21:43.240Z,13.76
2019-04-03T11:24:11.313Z,13.65
2019-04-03T11:26:39.728Z,13.34
2019-04-03T11:29:09.921Z,13.50
2019-04-03T11:31:41.480Z,13.45
2019-04-03T11:34:08.293Z,13.41
2019-04-03T11:36:36.494Z,13.43
2019-04-03T11:39:13.546Z,13.29
2019-04-03T11:41:38.511Z,13.67
2019-04-03T11:44:06.678Z,13.79
2019-04-03T11:46:35.450Z,13.30
2019-04-03T11:49:04.522Z,13.77
2019-04-03T11:51:34.264Z,13.85
2019-04-03T11:54:02.721Z,13.99
2019-04-03T11:56:31.342Z,13.79
2019-04-03T11:58:59.904Z,14.02
2019-04-03T12:01:28.814Z,13.86
2019-04-03T12:03:57.217Z,14.06
2019-04-03T12:06:25.475Z,13.73
2019-04-03T12:08:53.736Z,13.80
2019-04-03T12:11:22.687Z,13.34
2019-04-03T12:13:51.410Z,13.15
2019-04-03T12:16:20.040Z,13.33
2019-04-03T12:18:48.456Z,13.00
2019-04-03T12:21:18.868Z,12.91
2019-04-03T12:23:46.968Z,13.29
2019-04-03T12:26:15.476Z,13.33
2019-04-03T12:28:43.853Z,13.10
2019-04-03T12:31:12.802Z,13.14
2019-04-03T12:33:52.744Z,13.27
2019-04-03T12:36:13.413Z,13.28
2019-04-03T12:38:41.287Z,13.36
2019-04-03T12:41:10.656Z,13.44
2019-04-03T12:43:39.590Z,13.63
2019-04-03T12:46:11.897Z,13.31
2019-04-03T12:48:40.500Z,13.24
2019-04-03T12:51:09.043Z,13.05
2019-04-03T12:53:37.838Z,13.16
2019-04-03T12:56:06.548Z,13.08
2019-04-03T12:58:36.395Z,13.02
2019-04-03T13:01:05.211Z,12.84
2019-04-03T13:03:36.716Z,12.63
2019-04-03T13:06:04.988Z,12.46
2019-04-03T13:08:33.536Z,12.29
2019-04-03T13:11:02.241Z,12.28
2019-04-03T13:13:30.460Z,12.11
2019-04-03T13:15:58.888Z,12.08
2019-04-03T13:18:27.220Z,12.23
2019-04-03T13:20:55.399Z,12.15
2019-04-03T13:23:23.558Z,12.04
2019-04-03T13:25:53.193Z,12.01
2019-04-03T13:28:21.840Z,11.67
2019-04-03T13:30:49.999Z,11.57
2019-04-03T13:33:18.140Z,11.52
2019-04-03T13:35:48.357Z,11.34
2019-04-03T13:38:17.483Z,11.19
2019-04-03T13:40:46.061Z,11.09
2019-04-03T13:43:15.462Z,11.03
2019-04-03T13:45:43.879Z,11.08
2019-04-03T13:48:13.443Z,11.08
2019-04-03T13:50:44.979Z,11.01
2019-04-03T13:53:12.740Z,11.04
2019-04-03T13:55:41.239Z,11.10
2019-04-03T13:58:10.347Z,11.13
2019-04-03T14:00:38.800Z,11.28
2019-04-03T14:03:07.035Z,11.34
2019-04-03T14:05:35.216Z,11.38
2019-04-03T14:08:06.368Z,11.55
2019-04-03T14:10:33.979Z,11.92
2019-04-03T14:13:02.237Z,11.71
2019-04-03T14:15:32.469Z,11.91
2019-04-03T14:18:00.652Z,12.31
2019-04-03T14:20:28.863Z,12.45
2019-04-03T14:22:57.038Z,12.37
2019-04-03T14:25:28.099Z,12.35
2019-04-03T14:27:55.660Z,12.32
2019-04-03T14:30:24.615Z,12.34
2019-04-03T14:32:54.672Z,12.47
2019-04-03T14:35:45.143Z,12.30
2019-04-03T14:37:53.376Z,12.28
2019-04-03T14:40:21.705Z,12.14
2019-04-03T14:42:49.902Z,12.17
2019-04-03T14:45:25.733Z,12.14
2019-04-03T14:47:54.914Z,11.86
2019-04-03T14:50:24.129Z,11.93
2019-04-03T14:52:52.511Z,11.93
2019-04-03T14:55:22.751Z,12.05
2019-04-03T14:57:53.764Z,10.87
2019-04-03T15:00:28.553Z,10.10
2019-04-03T15:02:51.178Z,9.54
2019-04-03T15:05:19.715Z,9.54
2019-04-03T15:07:50.613Z,9.46
2019-04-03T15:10:18.678Z,9.30
2019-04-03T15:12:47.235Z,9.42
2019-04-03T15:15:15.797Z,9.34
2019-04-03T15:17:44.382Z,9.43
2019-04-03T15:20:16.910Z,9.16
2019-04-03T15:22:44.133Z,9.14
2019-04-03T15:25:12.911Z,8.91
2019-04-03T15:27:42.640Z,8.96
2019-04-03T15:30:12.265Z,9.26
2019-04-03T15:32:41.166Z,9.18
2019-04-03T15:35:10.477Z,9.17
2019-04-03T15:37:41.929Z,9.34
2019-04-03T15:40:10.159Z,9.60
2019-04-03T15:42:40.567Z,9.63
2019-04-03T15:45:11.681Z,9.80
2019-04-03T15:47:45.013Z,9.46
2019-04-03T15:50:12.055Z,9.70
2019-04-03T15:52:43.140Z,9.74
2019-04-03T15:55:11.763Z,9.72
2019-04-03T15:57:40.991Z,9.72
2019-04-03T16:00:12.460Z,9.58
2019-04-03T16:02:44.495Z,9.70
2019-04-03T16:05:11.980Z,9.67
2019-04-03T16:07:41.614Z,9.69
2019-04-03T16:10:10.932Z,9.67
2019-04-03T16:12:42.932Z,9.68
2019-04-03T16:15:09.836Z,9.65
2019-04-03T16:17:39.130Z,9.77
2019-04-03T16:20:08.632Z,9.82
2019-04-03T16:22:38.455Z,9.68
2019-04-03T16:25:08.173Z,9.70
2019-04-03T16:27:36.491Z,9.87
2019-04-03T16:30:07.192Z,9.80
2019-04-03T16:32:37.681Z,9.76
2019-04-03T16:35:07.670Z,9.52
2019-04-03T16:37:36.362Z,9.41
2019-04-03T16:40:06.192Z,9.43
2019-04-03T16:42:35.014Z,9.43
2019-04-03T16:45:08.156Z,9.43
2019-04-03T16:47:34.572Z,9.46
2019-04-03T16:50:05.723Z,9.38
2019-04-03T16:52:36.247Z,9.40
2019-04-03T16:55:04.481Z,9.47
2019-04-03T16:57:32.660Z,9.43
2019-04-03T17:00:00.847Z,9.39
2019-04-03T17:02:29.957Z,9.32
2019-04-03T17:04:58.488Z,9.21
2019-04-03T17:07:26.757Z,9.24
2019-04-03T17:09:54.940Z,9.22
2019-04-03T17:12:23.278Z,9.25
2019-04-03T17:14:52.955Z,9.15
2019-04-03T17:17:22.651Z,9.14
2019-04-03T17:19:51.782Z,9.20
2019-04-03T17:22:20.492Z,9.17
2019-04-03T17:24:51.868Z,9.15
2019-04-03T17:27:19.086Z,9.13
2019-04-03T17:29:48.107Z,9.27
2019-04-03T17:32:19.575Z,9.19
2019-04-03T17:34:47.778Z,9.23
2019-04-03T17:37:19.006Z,9.43
2019-04-03T17:39:46.196Z,9.49
2019-04-03T17:42:15.266Z,9.20
2019-04-03T17:44:44.757Z,9.02
2019-04-03T17:47:13.502Z,9.02
2019-04-03T17:49:41.798Z,9.14
2019-04-03T17:52:10.165Z,9.03
2019-04-03T17:54:39.123Z,8.97
2019-04-03T17:57:07.529Z,9.03
2019-04-03T17:59:35.668Z,9.03
2019-04-03T18:02:04.095Z,9.01
2019-04-03T18:04:32.456Z,8.99
2019-04-03T18:07:00.670Z,8.97
2019-04-03T18:09:28.927Z,9.07
2019-04-03T18:11:58.031Z,8.99
2019-04-03T18:14:27.109Z,9.11
2019-04-03T18:16:55.350Z,9.07
2019-04-03T18:19:23.546Z,8.92
2019-04-03T18:22:51.006Z,8.71
2019-04-03T18:25:20.165Z,8.71
2019-04-03T18:27:48.398Z,8.73
2019-04-03T18:30:17.875Z,8.77
2019-04-03T18:32:46.689Z,8.86
2019-04-03T18:35:15.218Z,8.79
2019-04-03T18:37:43.435Z,8.72
2019-04-03T18:40:14.242Z,8.63
2019-04-03T18:42:41.932Z,8.69
2019-04-03T18:45:24.638Z,8.61
2019-04-03T18:47:46.520Z,8.62
2019-04-03T18:50:14.763Z,8.70
2019-04-03T18:52:43.429Z,8.52
2019-04-03T18:55:14.628Z,8.32
2019-04-03T18:57:42.348Z,8.34
2019-04-03T19:00:11.037Z,8.30
2019-04-03T19:02:39.293Z,8.40
2019-04-03T19:05:09.919Z,8.48
2019-04-03T19:07:38.238Z,8.37
2019-04-03T19:10:07.823Z,8.38
2019-04-03T19:12:36.318Z,8.43
2019-04-03T19:15:07.070Z,8.50
2019-04-03T19:17:35.384Z,8.43
2019-04-03T19:20:10.808Z,8.57
2019-04-03T19:22:35.079Z,8.41
2019-04-03T19:25:03.651Z,8.44
2019-04-03T19:27:33.013Z,8.44
2019-04-03T19:30:01.738Z,8.46
2019-04-03T19:32:30.344Z,8.47
2019-04-03T19:34:58.593Z,8.52
2019-04-03T19:37:26.898Z,8.71
2019-04-03T19:39:55.102Z,8.71
2019-04-03T19:42:24.177Z,8.59
2019-04-03T19:44:52.321Z,8.55
2019-04-03T19:47:20.497Z,8.44
2019-04-03T19:49:48.693Z,8.44
2019-04-03T19:52:16.925Z,8.48
2019-04-03T19:54:45.056Z,8.54
2019-04-03T19:57:13.351Z,8.57
2019-04-03T19:59:41.511Z,8.74
2019-04-03T20:02:10.251Z,8.69
2019-04-03T20:04:38.691Z,8.61
2019-04-03T20:07:07.393Z,8.49
2019-04-03T20:09:35.535Z,8.60
2019-04-03T20:12:06.816Z,8.36
2019-04-03T20:14:33.902Z,8.38
2019-04-03T20:17:02.167Z,8.41
2019-04-03T20:19:30.410Z,8.13
2019-04-03T20:21:58.618Z,8.04
2019-04-03T20:24:26.887Z,8.00
2019-04-03T20:26:55.080Z,8.20
2019-04-03T20:29:23.294Z,8.17
2019-04-03T20:31:51.473Z,8.31
2019-04-03T20:34:19.624Z,8.39
2019-04-03T20:36:50.948Z,8.36
2019-04-03T20:39:18.381Z,8.28
2019-04-03T20:41:46.601Z,8.33
2019-04-03T20:44:16.703Z,8.33
2019-04-03T20:46:44.860Z,8.26
2019-04-03T20:49:13.145Z,8.32
2019-04-03T20:51:51.430Z,8.31
2019-04-03T20:54:21.261Z,8.38
2019-04-03T20:56:57.817Z,8.33
2019-04-03T20:59:19.972Z,8.51
2019-04-03T21:01:48.221Z,8.43
2019-04-03T21:04:16.492Z,8.46
2019-04-03T21:06:44.964Z,8.33
2019-04-03T21:09:13.217Z,8.37
2019-04-03T21:11:41.342Z,8.36
2019-04-03T21:14:11.285Z,8.28
2019-04-03T21:16:41.135Z,8.27
2019-04-03T21:19:09.395Z,8.23
2019-04-03T21:21:37.540Z,8.16
2019-04-03T21:24:07.532Z,8.24
2019-04-03T21:26:38.273Z,8.28
2019-04-03T21:29:07.091Z,8.23
2019-04-03T21:31:35.396Z,8.28
2019-04-03T21:34:03.659Z,8.23
2019-04-03T21:36:31.787Z,8.26
2019-04-03T21:38:59.948Z,8.32
2019-04-03T21:41:28.185Z,8.36
2019-04-03T21:43:59.729Z,8.29
2019-04-03T21:46:26.635Z,8.37
2019-04-03T21:48:57.044Z,8.33
2019-04-03T21:51:25.200Z,8.34
2019-04-03T21:53:55.773Z,8.32
2019-04-03T21:56:23.497Z,8.39
2019-04-03T21:58:51.800Z,8.42
2019-04-03T22:01:25.209Z,8.38
2019-04-03T22:03:53.658Z,8.25
2019-04-03T22:06:21.869Z,8.08
2019-04-03T22:08:51.591Z,7.90
2019-04-03T22:11:20.030Z,7.59
2019-04-03T22:13:49.752Z,7.50
2019-04-03T22:16:19.475Z,7.52
2019-04-03T22:18:47.890Z,7.48
2019-04-03T22:21:16.117Z,7.32
2019-04-03T22:23:44.761Z,7.33
2019-04-03T22:26:12.874Z,7.29
2019-04-03T22:28:41.321Z,7.31
2019-04-03T22:31:09.448Z,7.32
2019-04-03T22:33:37.659Z,7.28
2019-04-03T22:36:05.789Z,7.30
2019-04-03T22:38:36.971Z,7.29
2019-04-03T22:41:04.162Z,7.28
2019-04-03T22:43:32.330Z,7.32
2019-04-03T22:46:00.706Z,7.28
2019-04-03T22:48:29.239Z,7.28
2019-04-03T22:50:57.609Z,7.34
2019-04-03T22:53:25.766Z,7.41
2019-04-03T22:55:53.938Z,7.33
2019-04-03T22:58:22.202Z,7.14
2019-04-03T23:00:50.562Z,7.22
2019-04-03T23:03:18.675Z,7.45
2019-04-03T23:05:47.950Z,7.39
2019-04-03T23:08:17.016Z,7.24
2019-04-03T23:10:45.274Z,7.33
2019-04-03T23:13:13.425Z,7.32
2019-04-03T23:15:41.624Z,7.04
2019-04-03T23:18:09.770Z,6.93
2019-04-03T23:20:38.072Z,7.14
2019-04-03T23:23:06.376Z,7.07
2019-04-03T23:25:34.678Z,6.76
2019-04-03T23:28:03.577Z,6.90
2019-04-03T23:30:31.903Z,6.62
2019-04-03T23:33:00.069Z,6.88
2019-04-03T23:35:28.407Z,6.62
2019-04-03T23:37:56.658Z,6.70
2019-04-03T23:40:25.232Z,6.83
2019-04-03T23:42:53.400Z,6.77
2019-04-03T23:45:22.987Z,6.72
2019-04-03T23:47:51.219Z,6.78
2019-04-03T23:50:20.005Z,6.97
2019-04-03T23:52:49.527Z,6.94
2019-04-03T23:55:17.737Z,6.97
2019-04-03T23:57:46.906Z,6.93
